Grape Creek, Texas
Current Conditions -  °F | °C
As of 7:51 AM on Friday 19 Dec 2014 (Local Time) from KSJT Reporting Station
Overcast Overcast  
Wind Chill: 41°   Ceiling: 400
Heat Index: 45°   Visibility: 10mi
Dew Point: 42°   Wind: 7mph
Humidity: 90%   Direction: 50°NE
Pressure: 30.16"   Gusts: NA
Location:  31.5873°N, 100.522°W
Report Text: KSJT 191351Z 05006KT 10SM OVC004 07/06 A3016 RMK AO2 SLP213 T00720056
Loading
Personal Weather Stations






























Interactive Weather Map New forecast layout! Learn more

10-Day Weather Forecast

Advertisements
Track Severe Weather on mobile